Ncc Rabigh — HZQA — position and weather

sailwx.info

Track history (hours):
 
Tides and Currents Weather Stations Pressure Air Temp Water Temp Dewpoint Dewpoint Depression Visibility Wind Speed Wind Dir Waves Ship Positions

Ncc Rabigh

Last reported at 2018-Apr-20 19:49 UTC. Time now 2018-Apr-20 20:13 UTC.
Position N 35°29' E 140°00'.

Length 183 m; draft 9.9 m.

Type: Ship (hazmat cat B). MMSI: 403575000.

Date/timePositionNaut miles runAvg speedWind from/ knotsBaromVisibWave heightAir tempDewpointWater temp
2018-Apr-20 19:49N 35°29' E 140°00'0 0.0
2018-Apr-20 19:19N 35°29' E 140°00'0 0.0
2018-Apr-20 18:55N 35°29' E 140°00'0 0.0
2018-Apr-20 18:25N 35°29' E 140°00'0 0.0
2018-Apr-20 17:58N 35°29' E 140°00'0 0.0
2018-Apr-20 17:16N 35°29' E 140°00'0 0.0
2018-Apr-20 16:58N 35°29' E 140°00'0 0.0
2018-Apr-20 16:25N 35°29' E 140°00'0 0.0
2018-Apr-20 15:43N 35°29' E 140°00'0 0.0
2018-Apr-20 15:28N 35°29' E 140°00'0 0.0
2018-Apr-20 14:58N 35°29' E 140°00'0 0.0
2018-Apr-20 14:13N 35°29' E 140°00'0 0.0
2018-Apr-20 13:58N 35°29' E 140°00'0 0.0
2018-Apr-20 13:19N 35°29' E 140°00'0 0.0
2018-Apr-20 12:55N 35°29' E 140°00'0 0.0
2018-Apr-20 12:25N 35°29' E 140°00'0 0.0
2018-Apr-20 11:55N 35°29' E 140°00'0 0.0
2018-Apr-20 11:13N 35°29' E 140°00'0 0.0
2018-Apr-20 10:55N 35°29' E 140°00'0 0.0
2018-Apr-20 10:16N 35°29' E 140°00'0 0.0
2018-Apr-20 09:55N 35°29' E 140°00'0 0.0
2018-Apr-20 08:40N 35°29' E 140°00'0 0.0
2018-Apr-20 08:22N 35°29' E 140°00'0 0.0
2018-Apr-20 07:58N 35°29' E 140°00'0 0.1
2018-Apr-20 07:30N 35°29' E 140°00'3 4.9
2018-Apr-20 06:59N 35°30' E 139°58'510.2
2018-Apr-20 06:30N 35°29' E 139°52'612.5
2018-Apr-20 06:00N 35°24' E 139°46'612.3
2018-Apr-20 05:30N 35°18' E 139°44'612.6
2018-Apr-20 05:00N 35°12' E 139°47'5 9.5
2018-Apr-20 04:30N 35°08' E 139°46'4 8.6
2018-Apr-20 04:01N 35°05' E 139°43'5 9.4
2018-Apr-20 03:30N 35°01' E 139°39'5 9.1
2018-Apr-20 03:00N 34°57' E 139°35'5 9.7
2018-Apr-20 02:30N 34°54' E 139°32'510.1
2018-Apr-20 02:00N 34°51' E 139°26'611.2
2018-Apr-20 01:30N 34°48' E 139°21'1112.6
2018-Apr-20 00:39N 34°40' E 139°12'212.4
2018-Apr-20 00:30N 34°39' E 139°11'712.4
2018-Apr-19 23:58N 34°34' E 139°05'612.6
2018-Apr-19 23:30N 34°30' E 139°00'612.3
2018-Apr-19 23:00N 34°25' E 138°55'612.5
2018-Apr-19 22:30N 34°21' E 138°49'611.7
2018-Apr-19 22:00N 34°18' E 138°43'712.7
2018-Apr-19 21:29N 34°18' E 138°35'712.7
2018-Apr-19 20:58N 34°17' E 138°28'612.9
2018-Apr-19 20:29N 34°17' E 138°20'612.6
2018-Apr-19 19:59N 34°17' E 138°12'712.6
2018-Apr-19 19:27N 34°17' E 138°04'1212.5
2018-Apr-19 18:28N 34°17' E 137°49'612.3
2018-Apr-19 17:58N 34°17' E 137°42'612.3
2018-Apr-19 17:28N 34°16' E 137°34'1612.1
2018-Apr-19 16:09N 34°20' E 137°16'2610.8
2018-Apr-19 13:43N 34°38' E 136°53'312.0
2018-Apr-19 13:28N 34°40' E 136°50'612.1
2018-Apr-19 12:59N 34°45' E 136°47'713.7
2018-Apr-19 12:30N 34°51' E 136°44'612.0
2018-Apr-19 12:00N 34°57' E 136°41'2 3.7
2018-Apr-19 11:30N 34°57' E 136°39'0 0.0
2018-Apr-19 10:58N 34°57' E 136°39'0 0.0
2018-Apr-19 10:28N 34°57' E 136°39'0 0.0
2018-Apr-19 09:58N 34°57' E 136°39'0 0.0
2018-Apr-19 09:28N 34°57' E 136°39'0 0.0
2018-Apr-19 08:58N 34°57' E 136°39'0 0.0
2018-Apr-19 08:28N 34°57' E 136°39'0 0.1
2018-Apr-19 07:58N 34°57' E 136°39'0 0.0
2018-Apr-19 07:28N 34°57' E 136°39'0 0.1
2018-Apr-19 06:58N 34°57' E 136°39'0 0.0
2018-Apr-19 06:28N 34°57' E 136°39'0 0.0
2018-Apr-19 05:58N 34°57' E 136°39'0 0.0
2018-Apr-19 05:28N 34°57' E 136°39'0 0.0
2018-Apr-19 04:52N 34°57' E 136°39'0 0.0
2018-Apr-19 03:10N 34°57' E 136°39'0 0.0
2018-Apr-19 02:58N 34°57' E 136°39'0 0.0
2018-Apr-19 02:28N 34°57' E 136°39'0 0.0
2018-Apr-19 01:58N 34°57' E 136°39'0 0.0
2018-Apr-19 01:28N 34°57' E 136°39'0 0.0
2018-Apr-19 00:58N 34°57' E 136°39'0 0.0
2018-Apr-19 00:28N 34°57' E 136°39'0 0.0
2018-Apr-18 23:52N 34°57' E 136°39'0 0.0
2018-Apr-18 23:28N 34°57' E 136°39'0 0.0
2018-Apr-18 22:52N 34°57' E 136°39'0 0.0
2018-Apr-18 20:40N 34°57' E 136°39'0 0.0
2018-Apr-18 20:22N 34°57' E 136°39'0 0.0
2018-Apr-18 19:40N 34°57' E 136°39'0 0.0
2018-Apr-18 19:28N 34°57' E 136°39'0 0.0
2018-Apr-18 18:58N 34°57' E 136°39'0 0.0
2018-Apr-18 18:28N 34°57' E 136°39'0 0.0
2018-Apr-18 17:40N 34°57' E 136°39'0 0.0
2018-Apr-18 17:22N 34°57' E 136°39'0 0.0
2018-Apr-18 16:40N 34°57' E 136°39'0 0.0
2018-Apr-18 16:28N 34°57' E 136°39'0 0.1
2018-Apr-18 15:52N 34°57' E 136°39'0 0.0
2018-Apr-18 15:28N 34°57' E 136°39'0 0.1
2018-Apr-18 14:52N 34°57' E 136°39'0 0.0
2018-Apr-18 12:16N 34°57' E 136°39'0 0.0
2018-Apr-18 11:52N 34°57' E 136°39'0 0.0
2018-Apr-18 11:22N 34°57' E 136°39'0 0.1
2018-Apr-18 10:58N 34°57' E 136°39'0 0.1
2018-Apr-18 10:22N 34°57' E 136°39'0 0.0
2018-Apr-18 09:52N 34°57' E 136°39'0 0.0
2018-Apr-18 09:28N 34°57' E 136°39'0 0.0
2018-Apr-18 08:52N 34°57' E 136°39'0 0.1
2018-Apr-18 08:22N 34°57' E 136°39'0 0.0
2018-Apr-18 07:52N 34°57' E 136°39'0 0.1
2018-Apr-18 07:22N 34°57' E 136°39'0 0.0
2018-Apr-18 06:58N 34°57' E 136°39'0 0.0
2018-Apr-18 06:28N 34°57' E 136°39'0 0.0
2018-Apr-18 05:58N 34°57' E 136°39'0 0.0
2018-Apr-18 05:28N 34°57' E 136°39'0 0.0
2018-Apr-18 04:58N 34°57' E 136°39'0 0.0
2018-Apr-18 04:28N 34°57' E 136°39'0 0.0
2018-Apr-18 03:58N 34°57' E 136°39'0 0.0
2018-Apr-18 03:28N 34°57' E 136°39'0 0.0
2018-Apr-18 02:58N 34°57' E 136°39'0 0.0
2018-Apr-18 02:22N 34°57' E 136°39'0 0.0
2018-Apr-18 01:58N 34°57' E 136°39'0 0.0
2018-Apr-18 01:22N 34°57' E 136°39'0 0.0
2018-Apr-18 00:40N 34°57' E 136°39'0 0.0
2018-Apr-18 00:22N 34°57' E 136°39'0 0.2
2018-Apr-18 00:00N 34°57' E 136°39'2 4.6
2018-Apr-17 23:30N 34°56' E 136°41'1 2.6
2018-Apr-17 22:59N 34°55' E 136°42'0 0.1
2018-Apr-17 22:29N 34°55' E 136°42'0 0.1
2018-Apr-17 21:59N 34°55' E 136°42'0 0.0
2018-Apr-17 21:29N 34°55' E 136°42'0 0.0
2018-Apr-17 20:59N 34°55' E 136°42'0 0.0
2018-Apr-17 20:29N 34°55' E 136°42'0 0.1
2018-Apr-17 19:59N 34°55' E 136°42'0 0.0
2018-Apr-17 19:29N 34°55' E 136°42'0 0.0
2018-Apr-17 18:59N 34°55' E 136°42'0 0.0
2018-Apr-17 18:29N 34°55' E 136°42'0 0.1
2018-Apr-17 17:59N 34°55' E 136°42'0 0.1
2018-Apr-17 17:29N 34°55' E 136°42'0 0.0
2018-Apr-17 16:59N 34°55' E 136°42'0 0.0
2018-Apr-17 16:29N 34°55' E 136°42'0 0.0
2018-Apr-17 15:59N 34°55' E 136°42'0 0.0
2018-Apr-17 15:29N 34°55' E 136°42'0 0.1
2018-Apr-17 14:59N 34°55' E 136°42'0 0.1
2018-Apr-17 14:29N 34°55' E 136°42'0 0.1
2018-Apr-17 13:59N 34°55' E 136°42'0 0.0
2018-Apr-17 13:29N 34°55' E 136°42'0 0.0
2018-Apr-17 12:59N 34°55' E 136°42'0 0.1
2018-Apr-17 12:29N 34°55' E 136°42'0 0.0
2018-Apr-17 11:59N 34°55' E 136°42'0 0.0
2018-Apr-17 11:29N 34°55' E 136°42'0 0.1
2018-Apr-17 10:47N 34°55' E 136°42'0 0.0
2018-Apr-17 10:29N 34°55' E 136°42'0 0.1
2018-Apr-17 09:59N 34°55' E 136°42'0 0.0
2018-Apr-17 09:29N 34°55' E 136°42'0 0.0
2018-Apr-17 08:59N 34°55' E 136°42'0 0.0
2018-Apr-17 08:29N 34°55' E 136°42'0 0.0
2018-Apr-17 07:59N 34°55' E 136°42'0 0.0
2018-Apr-17 07:29N 34°55' E 136°42'0 0.0
2018-Apr-17 06:53N 34°55' E 136°42'0 0.0
2018-Apr-17 06:29N 34°55' E 136°42'0 0.0
2018-Apr-17 05:59N 34°55' E 136°42'0 0.0
2018-Apr-17 05:29N 34°55' E 136°42'0 0.1
2018-Apr-17 04:59N 34°55' E 136°42'0 0.1
2018-Apr-17 04:29N 34°55' E 136°42'0 0.2
2018-Apr-17 03:59N 34°55' E 136°42'0 0.0
2018-Apr-17 03:29N 34°55' E 136°42'0 0.0
2018-Apr-17 02:59N 34°55' E 136°42'0 0.1
2018-Apr-17 02:29N 34°55' E 136°42'0 0.0
2018-Apr-17 01:59N 34°55' E 136°42'0 0.0
2018-Apr-17 01:29N 34°55' E 136°42'0 0.0
2018-Apr-17 00:59N 34°55' E 136°42'0 0.0
2018-Apr-17 00:29N 34°55' E 136°42'0 0.0
2018-Apr-16 23:59N 34°55' E 136°42'0 0.0
2018-Apr-16 23:29N 34°55' E 136°42'0 0.0
2018-Apr-16 22:59N 34°55' E 136°42'0 0.1
2018-Apr-16 22:29N 34°55' E 136°42'0 0.1
2018-Apr-16 21:59N 34°55' E 136°42'0 0.1
2018-Apr-16 21:29N 34°55' E 136°42'0 0.1
2018-Apr-16 20:59N 34°55' E 136°42'0 0.0
2018-Apr-16 20:29N 34°55' E 136°42'0 0.1
2018-Apr-16 19:59N 34°55' E 136°42'0 0.0
2018-Apr-16 19:29N 34°55' E 136°42'0 0.0
2018-Apr-16 18:59N 34°55' E 136°42'0 0.1
2018-Apr-16 18:29N 34°55' E 136°42'0 0.0
2018-Apr-16 17:59N 34°55' E 136°42'0 0.1
2018-Apr-16 17:29N 34°55' E 136°42'0 0.3
2018-Apr-16 16:59N 34°55' E 136°42'0 0.0
2018-Apr-16 16:29N 34°55' E 136°42'0 0.0
2018-Apr-16 15:59N 34°55' E 136°42'0 0.1
2018-Apr-16 15:23N 34°55' E 136°42'0 0.1
2018-Apr-16 14:59N 34°55' E 136°42'0 0.1
2018-Apr-16 14:29N 34°55' E 136°42'0 0.0
2018-Apr-16 13:59N 34°55' E 136°42'0 0.0
2018-Apr-16 13:29N 34°55' E 136°42'0 0.0
2018-Apr-16 12:59N 34°55' E 136°42'0 0.0
2018-Apr-16 12:29N 34°55' E 136°42'0 0.0
2018-Apr-16 11:59N 34°55' E 136°42'0 0.0
2018-Apr-16 11:23N 34°55' E 136°42'0 0.0
2018-Apr-16 10:59N 34°55' E 136°42'0 0.0
2018-Apr-16 10:29N 34°55' E 136°42'0 0.0
2018-Apr-16 09:59N 34°55' E 136°42'0 0.1
2018-Apr-16 09:29N 34°55' E 136°42'0 0.0
2018-Apr-16 08:59N 34°55' E 136°42'0 0.0
2018-Apr-16 08:29N 34°55' E 136°42'0 0.0
2018-Apr-16 07:59N 34°55' E 136°42'0 0.0
2018-Apr-16 07:29N 34°55' E 136°42'0 0.0
2018-Apr-16 06:59N 34°55' E 136°42'0 0.1
2018-Apr-16 06:29N 34°55' E 136°42'0 0.1
2018-Apr-16 05:59N 34°55' E 136°42'0 0.1
2018-Apr-16 05:29N 34°55' E 136°42'0 0.1
2018-Apr-16 04:59N 34°55' E 136°42'0 0.1
2018-Apr-16 04:29N 34°55' E 136°42'0 0.1
2018-Apr-16 03:59N 34°55' E 136°42'0 0.1
2018-Apr-16 03:29N 34°55' E 136°42'0 0.0
2018-Apr-16 02:59N 34°55' E 136°42'0 0.0
2018-Apr-16 02:29N 34°55' E 136°42'0 0.2
2018-Apr-16 01:59N 34°55' E 136°42'1 2.4
2018-Apr-16 01:30N 34°54' E 136°42'612.3
2018-Apr-16 01:00N 34°48' E 136°44'713.4
2018-Apr-16 00:30N 34°42' E 136°49'813.3
2018-Apr-15 23:55N 34°37' E 136°56'512.6
2018-Apr-15 23:31N 34°34' E 137°01'611.2
2018-Apr-15 22:59N 34°29' E 137°05'  
2018-Apr-11 17:55N 31°01' E 124°56'6113.7
2018-Apr-11 13:29N 31°07' E 123°46'713.5
2018-Apr-11 12:57N 31°08' E 123°37'816.8
2018-Apr-11 12:30N 31°09' E 123°28'24 4.0
2018-Apr-11 06:36N 31°11' E 123°01'0 0.0
2018-Apr-11 06:08N 31°11' E 123°01'  
Track history (hours):
 
Tides and Currents Weather Stations Pressure Air Temp Water Temp Dewpoint Dewpoint Depression Visibility Wind Speed Wind Dir Waves Ship Positions

Ncc Rabigh

Last reported at 2018-Apr-20 19:49 UTC. Time now 2018-Apr-20 20:13 UTC.
Position N 35°29' E 140°00'.

Length 183 m; draft 9.9 m.

Type: Ship (hazmat cat B). MMSI: 403575000.

Date/timePositionNaut miles runAvg speedWind from/ knotsBaromVisibWave heightAir tempDewpointWater temp
2018-Apr-20 19:49N 35°29' E 140°00'0 0.0
2018-Apr-20 19:19N 35°29' E 140°00'0 0.0
2018-Apr-20 18:55N 35°29' E 140°00'0 0.0
2018-Apr-20 18:25N 35°29' E 140°00'0 0.0
2018-Apr-20 17:58N 35°29' E 140°00'0 0.0
2018-Apr-20 17:16N 35°29' E 140°00'0 0.0
2018-Apr-20 16:58N 35°29' E 140°00'0 0.0
2018-Apr-20 16:25N 35°29' E 140°00'0 0.0
2018-Apr-20 15:43N 35°29' E 140°00'0 0.0
2018-Apr-20 15:28N 35°29' E 140°00'0 0.0
2018-Apr-20 14:58N 35°29' E 140°00'0 0.0
2018-Apr-20 14:13N 35°29' E 140°00'0 0.0
2018-Apr-20 13:58N 35°29' E 140°00'0 0.0
2018-Apr-20 13:19N 35°29' E 140°00'0 0.0
2018-Apr-20 12:55N 35°29' E 140°00'0 0.0
2018-Apr-20 12:25N 35°29' E 140°00'0 0.0
2018-Apr-20 11:55N 35°29' E 140°00'0 0.0
2018-Apr-20 11:13N 35°29' E 140°00'0 0.0
2018-Apr-20 10:55N 35°29' E 140°00'0 0.0
2018-Apr-20 10:16N 35°29' E 140°00'0 0.0
2018-Apr-20 09:55N 35°29' E 140°00'0 0.0
2018-Apr-20 08:40N 35°29' E 140°00'0 0.0
2018-Apr-20 08:22N 35°29' E 140°00'0 0.0
2018-Apr-20 07:58N 35°29' E 140°00'0 0.1
2018-Apr-20 07:30N 35°29' E 140°00'3 4.9
2018-Apr-20 06:59N 35°30' E 139°58'510.2
2018-Apr-20 06:30N 35°29' E 139°52'612.5
2018-Apr-20 06:00N 35°24' E 139°46'612.3
2018-Apr-20 05:30N 35°18' E 139°44'612.6
2018-Apr-20 05:00N 35°12' E 139°47'5 9.5
2018-Apr-20 04:30N 35°08' E 139°46'4 8.6
2018-Apr-20 04:01N 35°05' E 139°43'5 9.4
2018-Apr-20 03:30N 35°01' E 139°39'5 9.1
2018-Apr-20 03:00N 34°57' E 139°35'5 9.7
2018-Apr-20 02:30N 34°54' E 139°32'510.1
2018-Apr-20 02:00N 34°51' E 139°26'611.2
2018-Apr-20 01:30N 34°48' E 139°21'1112.6
2018-Apr-20 00:39N 34°40' E 139°12'212.4
2018-Apr-20 00:30N 34°39' E 139°11'712.4
2018-Apr-19 23:58N 34°34' E 139°05'612.6
2018-Apr-19 23:30N 34°30' E 139°00'612.3
2018-Apr-19 23:00N 34°25' E 138°55'612.5
2018-Apr-19 22:30N 34°21' E 138°49'611.7
2018-Apr-19 22:00N 34°18' E 138°43'712.7
2018-Apr-19 21:29N 34°18' E 138°35'712.7
2018-Apr-19 20:58N 34°17' E 138°28'612.9
2018-Apr-19 20:29N 34°17' E 138°20'612.6
2018-Apr-19 19:59N 34°17' E 138°12'712.6
2018-Apr-19 19:27N 34°17' E 138°04'1212.5
2018-Apr-19 18:28N 34°17' E 137°49'612.3
2018-Apr-19 17:58N 34°17' E 137°42'612.3
2018-Apr-19 17:28N 34°16' E 137°34'1612.1
2018-Apr-19 16:09N 34°20' E 137°16'2610.8
2018-Apr-19 13:43N 34°38' E 136°53'312.0
2018-Apr-19 13:28N 34°40' E 136°50'612.1
2018-Apr-19 12:59N 34°45' E 136°47'713.7
2018-Apr-19 12:30N 34°51' E 136°44'612.0
2018-Apr-19 12:00N 34°57' E 136°41'2 3.7
2018-Apr-19 11:30N 34°57' E 136°39'0 0.0
2018-Apr-19 10:58N 34°57' E 136°39'0 0.0
2018-Apr-19 10:28N 34°57' E 136°39'0 0.0
2018-Apr-19 09:58N 34°57' E 136°39'0 0.0
2018-Apr-19 09:28N 34°57' E 136°39'0 0.0
2018-Apr-19 08:58N 34°57' E 136°39'0 0.0
2018-Apr-19 08:28N 34°57' E 136°39'0 0.1
2018-Apr-19 07:58N 34°57' E 136°39'0 0.0
2018-Apr-19 07:28N 34°57' E 136°39'0 0.1
2018-Apr-19 06:58N 34°57' E 136°39'0 0.0
2018-Apr-19 06:28N 34°57' E 136°39'0 0.0
2018-Apr-19 05:58N 34°57' E 136°39'0 0.0
2018-Apr-19 05:28N 34°57' E 136°39'0 0.0
2018-Apr-19 04:52N 34°57' E 136°39'0 0.0
2018-Apr-19 03:10N 34°57' E 136°39'0 0.0
2018-Apr-19 02:58N 34°57' E 136°39'0 0.0
2018-Apr-19 02:28N 34°57' E 136°39'0 0.0
2018-Apr-19 01:58N 34°57' E 136°39'0 0.0
2018-Apr-19 01:28N 34°57' E 136°39'0 0.0
2018-Apr-19 00:58N 34°57' E 136°39'0 0.0
2018-Apr-19 00:28N 34°57' E 136°39'0 0.0
2018-Apr-18 23:52N 34°57' E 136°39'0 0.0
2018-Apr-18 23:28N 34°57' E 136°39'0 0.0
2018-Apr-18 22:52N 34°57' E 136°39'0 0.0
2018-Apr-18 20:40N 34°57' E 136°39'0 0.0
2018-Apr-18 20:22N 34°57' E 136°39'0 0.0
2018-Apr-18 19:40N 34°57' E 136°39'0 0.0
2018-Apr-18 19:28N 34°57' E 136°39'0 0.0
2018-Apr-18 18:58N 34°57' E 136°39'0 0.0
2018-Apr-18 18:28N 34°57' E 136°39'0 0.0
2018-Apr-18 17:40N 34°57' E 136°39'0 0.0
2018-Apr-18 17:22N 34°57' E 136°39'0 0.0
2018-Apr-18 16:40N 34°57' E 136°39'0 0.0
2018-Apr-18 16:28N 34°57' E 136°39'0 0.1
2018-Apr-18 15:52N 34°57' E 136°39'0 0.0
2018-Apr-18 15:28N 34°57' E 136°39'0 0.1
2018-Apr-18 14:52N 34°57' E 136°39'0 0.0
2018-Apr-18 12:16N 34°57' E 136°39'0 0.0
2018-Apr-18 11:52N 34°57' E 136°39'0 0.0
2018-Apr-18 11:22N 34°57' E 136°39'0 0.1
2018-Apr-18 10:58N 34°57' E 136°39'0 0.1
2018-Apr-18 10:22N 34°57' E 136°39'0 0.0
2018-Apr-18 09:52N 34°57' E 136°39'0 0.0
2018-Apr-18 09:28N 34°57' E 136°39'0 0.0
2018-Apr-18 08:52N 34°57' E 136°39'0 0.1
2018-Apr-18 08:22N 34°57' E 136°39'0 0.0
2018-Apr-18 07:52N 34°57' E 136°39'0 0.1
2018-Apr-18 07:22N 34°57' E 136°39'0 0.0
2018-Apr-18 06:58N 34°57' E 136°39'0 0.0
2018-Apr-18 06:28N 34°57' E 136°39'0 0.0
2018-Apr-18 05:58N 34°57' E 136°39'0 0.0
2018-Apr-18 05:28N 34°57' E 136°39'0 0.0
2018-Apr-18 04:58N 34°57' E 136°39'0 0.0
2018-Apr-18 04:28N 34°57' E 136°39'0 0.0
2018-Apr-18 03:58N 34°57' E 136°39'0 0.0
2018-Apr-18 03:28N 34°57' E 136°39'0 0.0
2018-Apr-18 02:58N 34°57' E 136°39'0 0.0
2018-Apr-18 02:22N 34°57' E 136°39'0 0.0
2018-Apr-18 01:58N 34°57' E 136°39'0 0.0
2018-Apr-18 01:22N 34°57' E 136°39'0 0.0
2018-Apr-18 00:40N 34°57' E 136°39'0 0.0
2018-Apr-18 00:22N 34°57' E 136°39'0 0.2
2018-Apr-18 00:00N 34°57' E 136°39'2 4.6
2018-Apr-17 23:30N 34°56' E 136°41'1 2.6
2018-Apr-17 22:59N 34°55' E 136°42'0 0.1
2018-Apr-17 22:29N 34°55' E 136°42'0 0.1
2018-Apr-17 21:59N 34°55' E 136°42'0 0.0
2018-Apr-17 21:29N 34°55' E 136°42'0 0.0
2018-Apr-17 20:59N 34°55' E 136°42'0 0.0
2018-Apr-17 20:29N 34°55' E 136°42'0 0.1
2018-Apr-17 19:59N 34°55' E 136°42'0 0.0
2018-Apr-17 19:29N 34°55' E 136°42'0 0.0
2018-Apr-17 18:59N 34°55' E 136°42'0 0.0
2018-Apr-17 18:29N 34°55' E 136°42'0 0.1
2018-Apr-17 17:59N 34°55' E 136°42'0 0.1
2018-Apr-17 17:29N 34°55' E 136°42'0 0.0
2018-Apr-17 16:59N 34°55' E 136°42'0 0.0
2018-Apr-17 16:29N 34°55' E 136°42'0 0.0
2018-Apr-17 15:59N 34°55' E 136°42'0 0.0
2018-Apr-17 15:29N 34°55' E 136°42'0 0.1
2018-Apr-17 14:59N 34°55' E 136°42'0 0.1
2018-Apr-17 14:29N 34°55' E 136°42'0 0.1
2018-Apr-17 13:59N 34°55' E 136°42'0 0.0
2018-Apr-17 13:29N 34°55' E 136°42'0 0.0
2018-Apr-17 12:59N 34°55' E 136°42'0 0.1
2018-Apr-17 12:29N 34°55' E 136°42'0 0.0
2018-Apr-17 11:59N 34°55' E 136°42'0 0.0
2018-Apr-17 11:29N 34°55' E 136°42'0 0.1
2018-Apr-17 10:47N 34°55' E 136°42'0 0.0
2018-Apr-17 10:29N 34°55' E 136°42'0 0.1
2018-Apr-17 09:59N 34°55' E 136°42'0 0.0
2018-Apr-17 09:29N 34°55' E 136°42'0 0.0
2018-Apr-17 08:59N 34°55' E 136°42'0 0.0
2018-Apr-17 08:29N 34°55' E 136°42'0 0.0
2018-Apr-17 07:59N 34°55' E 136°42'0 0.0
2018-Apr-17 07:29N 34°55' E 136°42'0 0.0
2018-Apr-17 06:53N 34°55' E 136°42'0 0.0
2018-Apr-17 06:29N 34°55' E 136°42'0 0.0
2018-Apr-17 05:59N 34°55' E 136°42'0 0.0
2018-Apr-17 05:29N 34°55' E 136°42'0 0.1
2018-Apr-17 04:59N 34°55' E 136°42'0 0.1
2018-Apr-17 04:29N 34°55' E 136°42'0 0.2
2018-Apr-17 03:59N 34°55' E 136°42'0 0.0
2018-Apr-17 03:29N 34°55' E 136°42'0 0.0
2018-Apr-17 02:59N 34°55' E 136°42'0 0.1
2018-Apr-17 02:29N 34°55' E 136°42'0 0.0
2018-Apr-17 01:59N 34°55' E 136°42'0 0.0
2018-Apr-17 01:29N 34°55' E 136°42'0 0.0
2018-Apr-17 00:59N 34°55' E 136°42'0 0.0
2018-Apr-17 00:29N 34°55' E 136°42'0 0.0
2018-Apr-16 23:59N 34°55' E 136°42'0 0.0
2018-Apr-16 23:29N 34°55' E 136°42'0 0.0
2018-Apr-16 22:59N 34°55' E 136°42'0 0.1
2018-Apr-16 22:29N 34°55' E 136°42'0 0.1
2018-Apr-16 21:59N 34°55' E 136°42'0 0.1
2018-Apr-16 21:29N 34°55' E 136°42'0 0.1
2018-Apr-16 20:59N 34°55' E 136°42'0 0.0
2018-Apr-16 20:29N 34°55' E 136°42'0 0.1
2018-Apr-16 19:59N 34°55' E 136°42'0 0.0
2018-Apr-16 19:29N 34°55' E 136°42'0 0.0
2018-Apr-16 18:59N 34°55' E 136°42'0 0.1
2018-Apr-16 18:29N 34°55' E 136°42'0 0.0
2018-Apr-16 17:59N 34°55' E 136°42'0 0.1
2018-Apr-16 17:29N 34°55' E 136°42'0 0.3
2018-Apr-16 16:59N 34°55' E 136°42'0 0.0
2018-Apr-16 16:29N 34°55' E 136°42'0 0.0
2018-Apr-16 15:59N 34°55' E 136°42'0 0.1
2018-Apr-16 15:23N 34°55' E 136°42'0 0.1
2018-Apr-16 14:59N 34°55' E 136°42'0 0.1
2018-Apr-16 14:29N 34°55' E 136°42'0 0.0
2018-Apr-16 13:59N 34°55' E 136°42'0 0.0
2018-Apr-16 13:29N 34°55' E 136°42'0 0.0
2018-Apr-16 12:59N 34°55' E 136°42'0 0.0
2018-Apr-16 12:29N 34°55' E 136°42'0 0.0
2018-Apr-16 11:59N 34°55' E 136°42'0 0.0
2018-Apr-16 11:23N 34°55' E 136°42'0 0.0
2018-Apr-16 10:59N 34°55' E 136°42'0 0.0
2018-Apr-16 10:29N 34°55' E 136°42'0 0.0
2018-Apr-16 09:59N 34°55' E 136°42'0 0.1
2018-Apr-16 09:29N 34°55' E 136°42'0 0.0
2018-Apr-16 08:59N 34°55' E 136°42'0 0.0
2018-Apr-16 08:29N 34°55' E 136°42'0 0.0
2018-Apr-16 07:59N 34°55' E 136°42'0 0.0
2018-Apr-16 07:29N 34°55' E 136°42'0 0.0
2018-Apr-16 06:59N 34°55' E 136°42'0 0.1
2018-Apr-16 06:29N 34°55' E 136°42'0 0.1
2018-Apr-16 05:59N 34°55' E 136°42'0 0.1
2018-Apr-16 05:29N 34°55' E 136°42'0 0.1
2018-Apr-16 04:59N 34°55' E 136°42'0 0.1
2018-Apr-16 04:29N 34°55' E 136°42'0 0.1
2018-Apr-16 03:59N 34°55' E 136°42'0 0.1
2018-Apr-16 03:29N 34°55' E 136°42'0 0.0
2018-Apr-16 02:59N 34°55' E 136°42'0 0.0
2018-Apr-16 02:29N 34°55' E 136°42'0 0.2
2018-Apr-16 01:59N 34°55' E 136°42'1 2.4
2018-Apr-16 01:30N 34°54' E 136°42'612.3
2018-Apr-16 01:00N 34°48' E 136°44'713.4
2018-Apr-16 00:30N 34°42' E 136°49'813.3
2018-Apr-15 23:55N 34°37' E 136°56'512.6
2018-Apr-15 23:31N 34°34' E 137°01'611.2
2018-Apr-15 22:59N 34°29' E 137°05'  
2018-Apr-11 17:55N 31°01' E 124°56'6113.7
2018-Apr-11 13:29N 31°07' E 123°46'713.5
2018-Apr-11 12:57N 31°08' E 123°37'816.8
2018-Apr-11 12:30N 31°09' E 123°28'24 4.0
2018-Apr-11 06:36N 31°11' E 123°01'0 0.0
2018-Apr-11 06:08N 31°11' E 123°01'  

Dump ship's entire track history